createdAt,value
2017-05-20T00:00:56.196Z,9.78
2017-05-20T00:03:23.110Z,9.26
2017-05-20T00:05:50.236Z,9.80
2017-05-20T00:08:18.852Z,9.46
2017-05-20T00:10:45.812Z,8.72
2017-05-20T00:13:13.130Z,9.44
2017-05-20T00:15:40.044Z,10.28
2017-05-20T00:18:06.967Z,9.10
2017-05-20T00:20:34.387Z,8.28
2017-05-20T00:23:01.342Z,8.34
2017-05-20T00:25:28.272Z,7.92
2017-05-20T00:27:55.633Z,7.22
2017-05-20T00:30:22.545Z,6.82
2017-05-20T00:32:49.481Z,6.50
2017-05-20T00:35:16.759Z,6.50
2017-05-20T00:37:43.699Z,7.52
2017-05-20T00:40:10.669Z,6.58
2017-05-20T00:42:37.820Z,6.88
2017-05-20T00:45:04.738Z,6.50
2017-05-20T00:47:31.682Z,5.38
2017-05-20T00:49:58.765Z,4.54
2017-05-20T00:52:25.698Z,4.82
2017-05-20T00:54:52.616Z,5.64
2017-05-20T00:57:19.689Z,6.42
2017-05-20T00:59:46.740Z,7.98
2017-05-20T01:02:13.684Z,10.06
2017-05-20T01:04:40.925Z,8.42
2017-05-20T01:07:09.114Z,7.44
2017-05-20T01:09:36.056Z,6.78
2017-05-20T01:12:03.332Z,6.60
2017-05-20T01:14:30.360Z,5.52
2017-05-20T01:16:57.252Z,5.34
2017-05-20T01:19:24.557Z,5.54
2017-05-20T01:21:51.606Z,4.86
2017-05-20T01:24:18.511Z,4.76
2017-05-20T01:26:45.739Z,4.52
2017-05-20T01:29:12.661Z,4.80
2017-05-20T01:31:39.800Z,5.14
2017-05-20T01:34:06.952Z,4.94
2017-05-20T01:36:33.905Z,4.50
2017-05-20T01:39:00.857Z,4.92
2017-05-20T01:41:27.988Z,5.22
2017-05-20T01:43:54.937Z,5.10
2017-05-20T01:46:21.887Z,5.70
2017-05-20T01:48:49.247Z,5.16
2017-05-20T01:51:16.143Z,5.40
2017-05-20T01:53:43.068Z,4.42
2017-05-20T01:56:10.177Z,4.54
2017-05-20T01:58:37.106Z,4.46
2017-05-20T02:01:04.020Z,4.92
2017-05-20T02:03:31.116Z,4.40
2017-05-20T02:05:58.051Z,4.42
2017-05-20T02:08:26.099Z,3.90
2017-05-20T02:10:53.037Z,3.80
2017-05-20T02:13:20.296Z,5.22
2017-05-20T02:15:47.242Z,4.84
2017-05-20T02:18:14.175Z,5.12
2017-05-20T02:20:41.468Z,4.38
2017-05-20T02:23:08.389Z,4.50
2017-05-20T02:25:35.308Z,3.50
2017-05-20T02:28:02.228Z,4.42
2017-05-20T02:30:29.143Z,4.18
2017-05-20T02:32:56.512Z,3.80
2017-05-20T02:35:23.448Z,4.98
2017-05-20T02:37:50.393Z,4.66
2017-05-20T02:40:17.358Z,5.02
2017-05-20T02:42:44.273Z,5.38
2017-05-20T02:45:11.244Z,5.42
2017-05-20T02:47:38.387Z,5.20
2017-05-20T02:50:05.336Z,5.06
2017-05-20T02:52:32.279Z,4.46
2017-05-20T02:54:59.228Z,4.70
2017-05-20T02:57:26.163Z,4.56
2017-05-20T02:59:53.302Z,4.50
2017-05-20T03:02:20.200Z,4.42
2017-05-20T03:04:47.769Z,4.54
2017-05-20T03:07:15.072Z,4.42
2017-05-20T03:09:49.019Z,4.48
2017-05-20T03:12:16.089Z,3.94
2017-05-20T03:14:43.039Z,3.90
2017-05-20T03:17:10.349Z,3.74
2017-05-20T03:19:37.279Z,3.48
2017-05-20T03:22:04.203Z,3.62
2017-05-20T03:24:31.486Z,4.08
2017-05-20T03:26:58.416Z,3.86
2017-05-20T03:29:25.334Z,3.86
2017-05-20T03:31:52.231Z,3.80
2017-05-20T03:34:19.132Z,4.14
2017-05-20T03:36:46.520Z,4.16
2017-05-20T03:39:13.480Z,4.08
2017-05-20T03:41:40.508Z,3.88
2017-05-20T03:44:07.454Z,4.14
2017-05-20T03:46:34.397Z,4.04
2017-05-20T03:49:01.765Z,3.42
2017-05-20T03:51:28.736Z,4.32
2017-05-20T03:53:55.663Z,4.38
2017-05-20T03:56:22.603Z,5.12
2017-05-20T03:58:49.550Z,4.90
2017-05-20T04:01:16.897Z,4.74
2017-05-20T04:03:43.844Z,5.22
2017-05-20T04:06:10.752Z,5.90
2017-05-20T04:08:37.688Z,5.72
2017-05-20T04:11:04.596Z,6.74
2017-05-20T04:13:31.909Z,6.48
2017-05-20T04:15:58.859Z,7.28
2017-05-20T04:18:25.809Z,6.26
2017-05-20T04:20:52.758Z,6.30
2017-05-20T04:23:19.684Z,7.68
2017-05-20T04:25:47.067Z,7.24
2017-05-20T04:28:14.032Z,7.66
2017-05-20T04:30:40.991Z,7.18
2017-05-20T04:33:07.936Z,7.70
2017-05-20T04:35:34.869Z,7.20
2017-05-20T04:38:02.176Z,6.80
2017-05-20T04:40:29.112Z,7.04
2017-05-20T04:42:56.073Z,8.40
2017-05-20T04:45:23.008Z,7.84
2017-05-20T04:47:49.955Z,8.44
2017-05-20T04:50:17.421Z,9.00
2017-05-20T04:52:44.349Z,8.22
2017-05-20T04:55:11.273Z,8.62
2017-05-20T04:57:38.237Z,9.56
2017-05-20T05:00:05.188Z,9.28
2017-05-20T05:02:32.537Z,9.14
2017-05-20T05:04:59.477Z,10.40
2017-05-20T05:07:26.397Z,9.74
2017-05-20T05:09:53.364Z,9.76
2017-05-20T05:12:20.284Z,9.02
2017-05-20T05:14:47.660Z,9.60
2017-05-20T05:17:14.611Z,9.60
2017-05-20T05:19:41.564Z,9.68
2017-05-20T05:22:08.532Z,10.18
2017-05-20T05:24:35.478Z,9.96
2017-05-20T05:27:02.782Z,10.44
2017-05-20T05:29:29.741Z,9.92
2017-05-20T05:31:56.708Z,10.10
2017-05-20T05:34:23.684Z,12.00
2017-05-20T05:36:50.632Z,12.24
2017-05-20T05:39:18.006Z,12.06
2017-05-20T05:41:44.928Z,12.30
2017-05-20T05:44:11.826Z,13.06
2017-05-20T05:46:38.792Z,13.84
2017-05-20T05:49:05.758Z,13.42
2017-05-20T05:51:33.144Z,13.82
2017-05-20T05:54:00.083Z,14.40
2017-05-20T05:56:27.013Z,14.80
2017-05-20T05:58:53.967Z,14.76
2017-05-20T06:01:21.945Z,15.48
2017-05-20T06:03:49.299Z,16.20
2017-05-20T06:06:16.270Z,16.88
2017-05-20T06:08:43.220Z,15.94
2017-05-20T06:11:10.158Z,15.74
2017-05-20T06:13:37.086Z,16.14
2017-05-20T06:16:04.597Z,17.54
2017-05-20T06:18:31.568Z,17.22
2017-05-20T06:20:58.484Z,18.48
2017-05-20T06:23:25.791Z,17.82
2017-05-20T06:25:52.748Z,17.34
2017-05-20T06:28:19.671Z,17.24
2017-05-20T06:30:46.644Z,18.26
2017-05-20T06:33:13.568Z,17.50
2017-05-20T06:35:40.852Z,19.00
2017-05-20T06:38:07.802Z,17.56
2017-05-20T06:40:34.744Z,18.34
2017-05-20T06:43:01.677Z,18.22
2017-05-20T06:45:28.634Z,20.34
2017-05-20T06:47:55.994Z,17.78
2017-05-20T06:50:22.927Z,19.46
2017-05-20T06:52:49.879Z,20.78
2017-05-20T06:55:16.845Z,20.68
2017-05-20T06:57:43.793Z,19.00
2017-05-20T07:00:11.100Z,20.86
2017-05-20T07:02:38.009Z,20.40
2017-05-20T07:05:04.934Z,20.58
2017-05-20T07:07:31.883Z,19.06
2017-05-20T07:09:58.837Z,19.30
2017-05-20T07:12:26.304Z,18.96
2017-05-20T07:14:53.232Z,19.88
2017-05-20T07:17:20.177Z,18.50
2017-05-20T07:19:47.128Z,18.12
2017-05-20T07:22:14.042Z,18.88
2017-05-20T07:24:41.932Z,17.40
2017-05-20T07:27:08.882Z,19.06
2017-05-20T07:29:35.841Z,19.74
2017-05-20T07:32:02.852Z,20.28
2017-05-20T07:34:30.669Z,18.94
2017-05-20T07:36:57.997Z,19.20
2017-05-20T07:39:24.906Z,18.82
2017-05-20T07:41:52.036Z,19.28
2017-05-20T07:44:22.139Z,20.68
2017-05-20T07:46:49.519Z,18.30
2017-05-20T07:49:17.085Z,18.38
2017-05-20T07:51:44.047Z,18.44
2017-05-20T07:54:11.031Z,18.28
2017-05-20T07:56:38.076Z,23.36
2017-05-20T07:59:05.028Z,20.88
2017-05-20T08:01:32.348Z,21.42
2017-05-20T08:03:59.872Z,22.44
2017-05-20T08:06:26.804Z,22.50
2017-05-20T08:08:53.937Z,20.74
2017-05-20T08:11:20.890Z,21.54
2017-05-20T08:13:48.186Z,20.62
2017-05-20T08:16:15.117Z,22.02
2017-05-20T08:18:42.037Z,21.68
2017-05-20T08:21:08.971Z,20.78
2017-05-20T08:23:35.897Z,22.38
2017-05-20T08:26:03.231Z,22.28
2017-05-20T08:28:30.150Z,21.38
2017-05-20T08:30:57.070Z,21.64
2017-05-20T08:33:24.049Z,21.40
2017-05-20T08:35:50.977Z,22.52
2017-05-20T08:38:18.353Z,21.52
2017-05-20T08:40:45.297Z,22.10
2017-05-20T08:43:12.231Z,21.14
2017-05-20T08:45:39.173Z,22.06
2017-05-20T08:48:06.108Z,19.28
2017-05-20T08:50:33.453Z,20.90
2017-05-20T08:53:00.389Z,20.82
2017-05-20T08:55:27.319Z,23.50
2017-05-20T08:57:54.293Z,23.86
2017-05-20T09:00:21.231Z,22.54
2017-05-20T09:02:48.596Z,23.36
2017-05-20T09:05:15.546Z,20.64
2017-05-20T09:07:42.466Z,19.74
2017-05-20T09:10:09.432Z,20.20
2017-05-20T09:12:36.369Z,20.32
2017-05-20T09:15:03.722Z,19.46
2017-05-20T09:17:30.642Z,20.48
2017-05-20T09:19:57.701Z,19.88
2017-05-20T09:22:24.993Z,18.28
2017-05-20T09:24:51.929Z,18.16
2017-05-20T09:27:18.883Z,18.08
2017-05-20T09:29:46.405Z,17.56
2017-05-20T09:32:13.360Z,18.18
2017-05-20T09:34:40.293Z,16.80
2017-05-20T09:37:07.256Z,17.72
2017-05-20T09:39:34.182Z,18.02
2017-05-20T09:42:01.492Z,18.96
2017-05-20T09:44:28.449Z,17.08
2017-05-20T09:46:55.393Z,16.34
2017-05-20T09:49:22.342Z,18.08
2017-05-20T09:51:49.253Z,17.96
2017-05-20T09:54:16.577Z,18.12
2017-05-20T09:56:43.495Z,17.28
2017-05-20T09:59:10.414Z,19.08
2017-05-20T10:01:37.898Z,18.60
2017-05-20T10:04:04.848Z,17.62
2017-05-20T10:06:32.138Z,16.64
2017-05-20T10:08:59.069Z,17.10
2017-05-20T10:11:26.027Z,17.08
2017-05-20T10:13:52.975Z,16.28
2017-05-20T10:16:19.915Z,15.06
2017-05-20T10:18:47.295Z,13.76
2017-05-20T10:21:14.233Z,15.86
2017-05-20T10:23:41.225Z,15.22
2017-05-20T10:26:08.192Z,15.22
2017-05-20T10:28:35.131Z,14.64
2017-05-20T10:31:02.577Z,14.76
2017-05-20T10:33:29.674Z,16.36
2017-05-20T10:35:56.682Z,14.10
2017-05-20T10:38:23.635Z,15.20
2017-05-20T10:40:50.585Z,15.98
2017-05-20T10:43:17.961Z,14.48
2017-05-20T10:45:44.889Z,13.94
2017-05-20T10:48:11.792Z,17.38
2017-05-20T10:50:38.758Z,18.64
2017-05-20T10:53:05.688Z,17.52
2017-05-20T10:55:33.056Z,18.38
2017-05-20T10:57:59.963Z,17.62
2017-05-20T11:00:26.856Z,16.88
2017-05-20T11:02:53.824Z,17.42
2017-05-20T11:05:20.782Z,16.92
2017-05-20T11:07:48.055Z,17.58
2017-05-20T11:10:14.992Z,15.88
2017-05-20T11:12:41.973Z,16.84
2017-05-20T11:15:08.937Z,17.10
2017-05-20T11:17:35.878Z,16.22
2017-05-20T11:20:03.207Z,16.60
2017-05-20T11:22:30.209Z,15.94
2017-05-20T11:24:57.207Z,16.28
2017-05-20T11:27:24.147Z,16.28
2017-05-20T11:29:51.082Z,16.36
2017-05-20T11:32:18.447Z,14.66
2017-05-20T11:34:45.403Z,13.14
2017-05-20T11:37:12.312Z,13.54
2017-05-20T11:39:39.265Z,15.14
2017-05-20T11:42:06.198Z,14.68
2017-05-20T11:44:33.660Z,14.84
2017-05-20T11:47:00.568Z,14.52
2017-05-20T11:49:27.497Z,14.70
2017-05-20T11:51:54.444Z,12.46
2017-05-20T11:54:21.392Z,14.48
2017-05-20T11:56:48.677Z,14.18
2017-05-20T11:59:15.648Z,12.78
2017-05-20T12:01:42.601Z,12.10
2017-05-20T12:04:09.627Z,12.54
2017-05-20T12:06:36.571Z,14.04
2017-05-20T12:09:03.215Z,12.60
2017-05-20T12:11:30.181Z,10.44
2017-05-20T12:13:57.108Z,12.76
2017-05-20T12:16:24.055Z,12.48
2017-05-20T12:18:51.030Z,12.12
2017-05-20T12:21:18.430Z,14.46
2017-05-20T12:23:45.365Z,14.24
2017-05-20T12:26:12.324Z,12.48
2017-05-20T12:28:39.702Z,14.92
2017-05-20T12:31:06.696Z,13.92
2017-05-20T12:33:33.596Z,14.40
2017-05-20T12:36:00.573Z,13.68
2017-05-20T12:38:28.450Z,13.38
2017-05-20T12:40:55.893Z,16.22
2017-05-20T12:43:22.838Z,14.34
2017-05-20T12:45:49.892Z,14.24
2017-05-20T12:48:17.504Z,13.88
2017-05-20T12:53:37.690Z,13.38
2017-05-20T12:56:04.633Z,12.58
2017-05-20T12:58:31.601Z,11.70
2017-05-20T13:00:58.925Z,12.56
2017-05-20T13:03:25.853Z,12.18
2017-05-20T13:05:52.801Z,11.98
2017-05-20T13:08:19.771Z,12.96
2017-05-20T13:10:46.733Z,11.94
2017-05-20T13:13:14.584Z,10.98
2017-05-20T13:15:41.523Z,10.18
2017-05-20T13:18:08.472Z,10.24
2017-05-20T13:20:35.433Z,10.36
2017-05-20T13:23:02.378Z,11.22
2017-05-20T13:25:29.740Z,10.44
2017-05-20T13:27:56.701Z,10.76
2017-05-20T13:30:23.631Z,11.04
2017-05-20T13:32:50.560Z,10.96
2017-05-20T13:35:17.468Z,11.10
2017-05-20T13:37:44.849Z,12.22
2017-05-20T13:40:11.791Z,12.12
2017-05-20T13:42:38.702Z,12.38
2017-05-20T13:45:05.651Z,12.04
2017-05-20T13:47:32.614Z,10.98
2017-05-20T13:49:59.938Z,11.26
2017-05-20T13:52:26.873Z,10.46
2017-05-20T13:54:53.793Z,11.52
2017-05-20T13:57:20.752Z,10.76
2017-05-20T13:59:47.698Z,9.46
2017-05-20T14:02:15.082Z,8.94
2017-05-20T14:04:42.043Z,9.58
2017-05-20T14:07:08.972Z,9.70
2017-05-20T14:09:35.908Z,10.34
2017-05-20T14:12:02.826Z,9.56
2017-05-20T14:14:30.109Z,8.98
2017-05-20T14:16:57.044Z,10.50
2017-05-20T14:19:23.998Z,9.90
2017-05-20T14:21:50.928Z,11.08
2017-05-20T14:24:17.843Z,10.62
2017-05-20T14:26:45.241Z,10.18
2017-05-20T14:29:12.177Z,9.72
2017-05-20T14:31:39.120Z,10.82
2017-05-20T14:34:06.053Z,10.72
2017-05-20T14:36:32.977Z,9.62
2017-05-20T14:39:00.253Z,9.82
2017-05-20T14:41:27.180Z,9.78
2017-05-20T14:43:54.117Z,11.88
2017-05-20T14:46:21.075Z,11.64
2017-05-20T14:48:48.557Z,10.54
2017-05-20T14:51:15.989Z,9.88
2017-05-20T14:53:42.897Z,9.70
2017-05-20T14:56:09.831Z,10.68
2017-05-20T14:58:36.794Z,10.18
2017-05-20T15:01:03.735Z,9.10
2017-05-20T15:03:31.109Z,9.60
2017-05-20T15:05:58.012Z,8.62
2017-05-20T15:08:24.959Z,9.70
2017-05-20T15:10:51.901Z,9.00
2017-05-20T15:13:18.849Z,10.42
2017-05-20T15:15:46.235Z,10.36
2017-05-20T15:18:13.149Z,10.44
2017-05-20T15:20:40.087Z,9.90
2017-05-20T15:23:07.047Z,9.46
2017-05-20T15:25:34.040Z,9.70
2017-05-20T15:28:01.364Z,8.78
2017-05-20T15:30:28.276Z,9.30
2017-05-20T15:32:55.209Z,8.02
2017-05-20T15:35:22.168Z,8.56
2017-05-20T15:37:49.089Z,8.04
2017-05-20T15:40:16.477Z,9.56
2017-05-20T15:42:43.393Z,9.56
2017-05-20T15:45:10.320Z,8.84
2017-05-20T15:47:37.280Z,9.64
2017-05-20T15:50:04.244Z,8.06
2017-05-20T15:52:31.592Z,7.10
2017-05-20T15:54:58.531Z,13.08
2017-05-20T15:57:25.464Z,13.02
2017-05-20T15:59:52.946Z,13.06
2017-05-20T16:02:19.890Z,12.34
2017-05-20T16:04:46.801Z,9.48
2017-05-20T16:07:14.169Z,7.36
2017-05-20T16:09:41.089Z,8.36
2017-05-20T16:12:07.993Z,6.40
2017-05-20T16:14:34.907Z,7.02
2017-05-20T16:17:01.934Z,6.14
2017-05-20T16:19:29.308Z,5.86
2017-05-20T16:21:56.241Z,5.40
2017-05-20T16:24:23.161Z,6.52
2017-05-20T16:26:50.128Z,5.90
2017-05-20T16:29:17.124Z,6.00
2017-05-20T16:31:44.525Z,5.74
2017-05-20T16:34:11.481Z,5.28
2017-05-20T16:36:38.436Z,5.16
2017-05-20T16:39:05.408Z,6.34
2017-05-20T16:41:32.340Z,6.46
2017-05-20T16:43:59.679Z,5.70
2017-05-20T16:46:26.589Z,6.08
2017-05-20T16:48:53.911Z,6.32
2017-05-20T16:51:20.986Z,5.84
2017-05-20T16:53:47.922Z,6.36
2017-05-20T16:56:15.269Z,6.32
2017-05-20T16:58:42.200Z,6.10
2017-05-20T17:01:09.121Z,6.88
2017-05-20T17:03:36.048Z,9.00
2017-05-20T17:06:03.000Z,6.20
2017-05-20T17:08:30.425Z,6.18
2017-05-20T17:10:57.370Z,5.46
2017-05-20T17:13:24.324Z,6.12
2017-05-20T17:15:51.321Z,5.48
2017-05-20T17:18:18.406Z,5.80
2017-05-20T17:20:45.339Z,6.02
2017-05-20T17:23:12.266Z,5.20
2017-05-20T17:25:40.313Z,5.10
2017-05-20T17:28:07.223Z,5.42
2017-05-20T17:30:34.196Z,5.96
2017-05-20T17:33:01.135Z,5.30
2017-05-20T17:35:28.045Z,5.40
2017-05-20T17:37:55.373Z,5.52
2017-05-20T17:40:22.321Z,5.24
2017-05-20T17:42:49.249Z,11.74
2017-05-20T17:45:16.282Z,17.76
2017-05-20T17:47:43.253Z,17.74
2017-05-20T17:50:10.540Z,8.80
2017-05-20T17:52:37.481Z,7.18
2017-05-20T17:55:04.433Z,8.00
2017-05-20T17:57:31.381Z,7.40
2017-05-20T17:59:58.728Z,6.98
2017-05-20T18:02:26.090Z,6.30
2017-05-20T18:04:53.031Z,5.70
2017-05-20T18:07:20.028Z,5.94
2017-05-20T18:09:46.998Z,14.92
2017-05-20T18:12:13.928Z,17.90
2017-05-20T18:14:41.280Z,6.44
2017-05-20T18:17:08.200Z,8.52
2017-05-20T18:19:35.129Z,5.68
2017-05-20T18:22:02.070Z,4.30
2017-05-20T18:24:28.970Z,5.28
2017-05-20T18:26:56.338Z,5.12
2017-05-20T18:29:23.253Z,5.38
2017-05-20T18:31:50.156Z,7.00
2017-05-20T18:34:17.080Z,6.28
2017-05-20T18:36:43.993Z,5.18
2017-05-20T18:39:11.364Z,6.58
2017-05-20T18:41:38.284Z,6.38
2017-05-20T18:44:05.200Z,5.00
2017-05-20T18:46:32.130Z,5.78
2017-05-20T18:48:59.080Z,5.08
2017-05-20T18:51:26.389Z,5.74
2017-05-20T18:53:53.313Z,8.98
2017-05-20T18:56:20.247Z,6.82
2017-05-20T18:58:47.205Z,7.02
2017-05-20T19:01:14.145Z,6.14
2017-05-20T19:03:41.079Z,5.50
2017-05-20T19:06:08.586Z,6.34
2017-05-20T19:08:35.529Z,7.54
2017-05-20T19:11:02.482Z,6.92
2017-05-20T19:13:29.409Z,6.86
2017-05-20T19:15:56.382Z,6.08
2017-05-20T19:18:23.707Z,5.84
2017-05-20T19:20:50.643Z,5.30
2017-05-20T19:23:17.576Z,6.50
2017-05-20T19:25:44.543Z,7.16
2017-05-20T19:28:11.481Z,8.34
2017-05-20T19:30:38.867Z,8.98
2017-05-20T19:33:05.801Z,9.16
2017-05-20T19:35:32.716Z,9.80
2017-05-20T19:37:59.686Z,8.42
2017-05-20T19:40:26.572Z,8.64
2017-05-20T19:42:53.900Z,8.42
2017-05-20T19:45:20.824Z,7.40
2017-05-20T19:47:47.729Z,8.34
2017-05-20T19:50:14.660Z,9.72
2017-05-20T19:52:41.596Z,10.60
2017-05-20T19:55:08.936Z,9.82
2017-05-20T19:57:35.854Z,9.92
2017-05-20T20:00:02.760Z,9.08
2017-05-20T20:02:29.768Z,9.42
2017-05-20T20:04:56.697Z,9.92
2017-05-20T20:07:24.068Z,8.50
2017-05-20T20:09:50.988Z,7.16
2017-05-20T20:12:17.958Z,9.32
2017-05-20T20:14:44.887Z,9.14
2017-05-20T20:17:11.828Z,9.32
2017-05-20T20:19:39.205Z,9.42
2017-05-20T20:22:06.117Z,8.46
2017-05-20T20:24:33.049Z,8.04
2017-05-20T20:27:00.043Z,7.90
2017-05-20T20:29:26.953Z,8.84
2017-05-20T20:31:54.245Z,8.46
2017-05-20T20:34:21.154Z,8.62
2017-05-20T20:36:48.213Z,7.56
2017-05-20T20:39:15.179Z,7.20
2017-05-20T20:41:42.109Z,7.52
2017-05-20T20:44:09.460Z,6.72
2017-05-20T20:46:36.378Z,6.90
2017-05-20T20:49:03.285Z,8.26
2017-05-20T20:51:30.212Z,9.28
2017-05-20T20:53:57.132Z,8.84
2017-05-20T20:56:24.416Z,8.08
2017-05-20T20:58:51.354Z,7.80
2017-05-20T21:01:18.268Z,7.58
2017-05-20T21:03:45.247Z,7.44
2017-05-20T21:06:12.175Z,6.48
2017-05-20T21:08:39.535Z,7.72
2017-05-20T21:11:06.480Z,6.36
2017-05-20T21:13:33.404Z,6.74
2017-05-20T21:16:00.327Z,6.78
2017-05-20T21:18:27.245Z,7.10
2017-05-20T21:20:54.574Z,6.58
2017-05-20T21:23:21.488Z,6.58
2017-05-20T21:25:48.401Z,7.02
2017-05-20T21:28:15.317Z,6.76
2017-05-20T21:30:42.254Z,7.10
2017-05-20T21:33:09.626Z,7.74
2017-05-20T21:35:36.537Z,7.34
2017-05-20T21:38:03.444Z,7.84
2017-05-20T21:40:30.389Z,7.70
2017-05-20T21:42:57.306Z,7.42
2017-05-20T21:45:24.657Z,7.78
2017-05-20T21:47:51.601Z,7.12
2017-05-20T21:50:18.536Z,6.88
2017-05-20T21:52:45.456Z,8.48
2017-05-20T21:55:12.380Z,7.36
2017-05-20T21:57:39.381Z,7.16
2017-05-20T22:00:06.736Z,7.62
2017-05-20T22:02:33.657Z,7.34
2017-05-20T22:05:00.587Z,7.96
2017-05-20T22:07:27.536Z,7.22
2017-05-20T22:09:54.464Z,8.48
2017-05-20T22:12:21.888Z,7.28
2017-05-20T22:14:48.792Z,6.60
2017-05-20T22:17:15.720Z,7.38
2017-05-20T22:19:43.388Z,7.16
2017-05-20T22:22:10.304Z,7.22
2017-05-20T22:24:37.581Z,9.34
2017-05-20T22:27:04.499Z,8.08
2017-05-20T22:29:31.404Z,9.26
2017-05-20T22:31:58.431Z,8.60
2017-05-20T22:34:25.376Z,7.34
2017-05-20T22:36:52.664Z,9.94
2017-05-20T22:39:19.557Z,18.26
2017-05-20T22:41:46.474Z,8.70
2017-05-20T22:44:13.378Z,8.56
2017-05-20T22:46:40.276Z,8.30
2017-05-20T22:49:07.582Z,9.66
2017-05-20T22:51:34.493Z,8.54
2017-05-20T22:54:01.406Z,7.96
2017-05-20T22:56:28.332Z,9.74
2017-05-20T22:58:55.273Z,8.86
2017-05-20T23:01:22.617Z,7.56
2017-05-20T23:03:49.528Z,9.02
2017-05-20T23:06:16.425Z,8.60
2017-05-20T23:08:43.396Z,8.52
2017-05-20T23:11:10.307Z,9.76
2017-05-20T23:13:37.664Z,10.12
2017-05-20T23:16:04.560Z,8.76
2017-05-20T23:18:31.556Z,9.12
2017-05-20T23:20:58.489Z,9.20
2017-05-20T23:23:25.411Z,9.26
2017-05-20T23:25:52.681Z,8.58
2017-05-20T23:28:19.593Z,9.62
2017-05-20T23:30:46.482Z,9.48
2017-05-20T23:33:13.439Z,10.84
2017-05-20T23:35:40.351Z,10.38
2017-05-20T23:38:07.737Z,10.46
2017-05-20T23:40:34.664Z,12.16
2017-05-20T23:43:01.617Z,15.70
2017-05-20T23:45:28.540Z,15.16
2017-05-20T23:47:55.468Z,14.84
2017-05-20T23:50:22.871Z,14.32
2017-05-20T23:52:50.444Z,14.22
2017-05-20T23:55:17.372Z,14.56
2017-05-20T23:57:44.278Z,15.80
